createdAt,value
2023-04-14T00:00:13.187Z,8.30
2023-04-14T00:02:41.312Z,8.30
2023-04-14T00:05:10.344Z,8.30
2023-04-14T00:07:39.750Z,8.30
2023-04-14T00:10:08.560Z,8.30
2023-04-14T00:12:36.709Z,8.30
2023-04-14T00:15:05.142Z,8.30
2023-04-14T00:17:33.121Z,8.30
2023-04-14T00:20:01.098Z,8.30
2023-04-14T00:22:29.082Z,8.30
2023-04-14T00:24:58.352Z,8.30
2023-04-14T00:27:26.320Z,8.30
2023-04-14T00:29:54.518Z,8.20
2023-04-14T00:32:22.721Z,8.20
2023-04-14T00:34:50.862Z,8.20
2023-04-14T00:37:18.846Z,8.20
2023-04-14T00:39:46.853Z,8.20
2023-04-14T00:42:16.161Z,8.20
2023-04-14T00:44:44.232Z,8.20
2023-04-14T00:47:12.604Z,8.10
2023-04-14T00:49:41.046Z,8.10
2023-04-14T00:52:09.006Z,8.10
2023-04-14T00:54:39.160Z,8.20
2023-04-14T00:57:07.550Z,8.00
2023-04-14T00:59:38.249Z,8.00
2023-04-14T01:02:06.407Z,7.90
2023-04-14T01:04:52.127Z,8.00
2023-04-14T01:07:21.642Z,7.90
2023-04-14T01:09:49.615Z,8.00
2023-04-14T01:12:27.676Z,7.90
2023-04-14T01:15:08.818Z,7.90
2023-04-14T01:17:43.146Z,7.50
2023-04-14T01:20:20.073Z,7.90
2023-04-14T01:22:53.818Z,7.90
2023-04-14T01:25:54.004Z,7.90
2023-04-14T01:28:47.571Z,7.90
2023-04-14T01:31:27.520Z,7.90
2023-04-14T01:34:00.363Z,8.00
2023-04-14T01:36:35.567Z,8.00
2023-04-14T01:39:09.240Z,8.00
2023-04-14T01:41:40.741Z,8.00
2023-04-14T01:44:10.735Z,8.00
2023-04-14T01:46:42.538Z,8.00
2023-04-14T01:49:11.335Z,7.90
2023-04-14T01:51:41.761Z,7.90
2023-04-14T01:54:12.853Z,7.90
2023-04-14T01:56:43.111Z,7.90
2023-04-14T01:59:12.881Z,7.90
2023-04-14T02:01:45.527Z,8.00
2023-04-14T02:04:14.572Z,7.90
2023-04-14T02:06:44.421Z,7.90
2023-04-14T02:09:13.707Z,7.90
2023-04-14T02:11:43.323Z,7.80
2023-04-14T02:14:13.753Z,7.80
2023-04-14T02:16:45.086Z,7.80
2023-04-14T02:19:15.268Z,7.80
2023-04-14T02:21:44.724Z,7.80
2023-04-14T02:24:13.025Z,7.80
2023-04-14T02:26:46.974Z,7.80
2023-04-14T02:29:17.630Z,7.70
2023-04-14T02:31:51.410Z,7.70
2023-04-14T02:34:23.794Z,7.80
2023-04-14T02:36:56.639Z,7.70
2023-04-14T02:39:32.240Z,7.90
2023-04-14T02:42:06.107Z,7.70
2023-04-14T02:44:37.849Z,7.70
2023-04-14T02:47:10.917Z,7.60
2023-04-14T02:49:41.924Z,7.60
2023-04-14T02:52:13.308Z,7.60
2023-04-14T02:54:43.946Z,7.60
2023-04-14T02:57:12.860Z,7.60
2023-04-14T02:59:42.956Z,7.60
2023-04-14T03:02:14.375Z,7.60
2023-04-14T03:04:42.881Z,7.80
2023-04-14T03:07:13.889Z,7.60
2023-04-14T03:09:42.506Z,7.70
2023-04-14T03:12:13.410Z,7.60
2023-04-14T03:14:43.252Z,7.60
2023-04-14T03:17:14.891Z,7.60
2023-04-14T03:19:48.004Z,7.60
2023-04-14T03:22:17.865Z,7.60
2023-04-14T03:24:46.635Z,7.60
2023-04-14T03:27:17.969Z,7.60
2023-04-14T03:29:49.163Z,7.60
2023-04-14T03:32:20.343Z,7.60
2023-04-14T03:34:51.135Z,7.60
2023-04-14T03:37:21.719Z,7.60
2023-04-14T03:39:52.081Z,7.70
2023-04-14T03:42:21.121Z,7.70
2023-04-14T03:44:54.184Z,7.60
2023-04-14T03:47:24.559Z,7.60
2023-04-14T03:49:57.455Z,7.60
2023-04-14T03:52:26.775Z,7.60
2023-04-14T03:55:01.941Z,7.60
2023-04-14T03:57:33.628Z,7.60
2023-04-14T04:00:03.548Z,7.60
2023-04-14T04:02:34.381Z,7.60
2023-04-14T04:05:03.604Z,7.60
2023-04-14T04:07:32.881Z,7.50
2023-04-14T04:10:03.462Z,7.50
2023-04-14T04:12:33.222Z,7.50
2023-04-14T04:15:02.078Z,7.50
2023-04-14T04:17:33.736Z,7.50
2023-04-14T04:20:07.347Z,7.50
2023-04-14T04:22:39.041Z,7.40
2023-04-14T04:25:08.825Z,7.40
2023-04-14T04:27:37.635Z,7.40
2023-04-14T04:30:09.658Z,7.40
2023-04-14T04:32:39.881Z,7.40
2023-04-14T04:35:09.340Z,7.30
2023-04-14T04:37:39.266Z,7.30
2023-04-14T04:40:08.703Z,7.30
2023-04-14T04:42:42.150Z,7.30
2023-04-14T04:45:11.217Z,7.30
2023-04-14T04:47:43.655Z,7.40
2023-04-14T04:50:11.957Z,7.40
2023-04-14T04:52:40.822Z,7.40
2023-04-14T04:55:09.221Z,7.40
2023-04-14T04:57:37.249Z,7.50
2023-04-14T05:00:06.449Z,7.50
2023-04-14T05:02:36.541Z,7.50
2023-04-14T05:05:06.884Z,7.50
2023-04-14T05:07:35.120Z,7.50
2023-04-14T05:10:04.133Z,7.60
2023-04-14T05:12:32.330Z,7.60
2023-04-14T05:15:00.707Z,7.50
2023-04-14T05:17:29.097Z,7.70
2023-04-14T05:19:59.548Z,7.60
2023-04-14T05:22:29.437Z,7.70
2023-04-14T05:24:57.571Z,7.80
2023-04-14T05:27:25.936Z,7.70
2023-04-14T05:29:54.019Z,7.70
2023-04-14T05:32:22.831Z,7.80
2023-04-14T05:34:50.927Z,7.80
2023-04-14T05:37:19.165Z,7.80
2023-04-14T05:39:48.742Z,7.90
2023-04-14T05:42:16.873Z,7.90
2023-04-14T05:44:44.886Z,8.00
2023-04-14T05:47:12.928Z,8.00
2023-04-14T05:49:41.154Z,8.10
2023-04-14T05:52:09.402Z,8.10
2023-04-14T05:54:43.212Z,8.20
2023-04-14T05:57:13.335Z,8.20
2023-04-14T05:59:42.394Z,8.30
2023-04-14T06:02:10.572Z,8.30
2023-04-14T06:04:38.974Z,8.40
2023-04-14T06:07:07.387Z,8.40
2023-04-14T06:09:42.899Z,8.40
2023-04-14T06:12:12.849Z,8.40
2023-04-14T06:14:41.131Z,8.40
2023-04-14T06:17:09.204Z,8.40
2023-04-14T06:19:37.501Z,8.40
2023-04-14T06:22:05.776Z,8.50
2023-04-14T06:24:34.577Z,8.50
2023-04-14T06:27:03.856Z,8.50
2023-04-14T06:29:33.320Z,8.50
2023-04-14T06:32:01.302Z,8.70
2023-04-14T06:34:30.928Z,8.60
2023-04-14T06:36:59.154Z,8.70
2023-04-14T06:39:28.331Z,8.70
2023-04-14T06:41:57.318Z,8.80
2023-04-14T06:44:26.150Z,8.90
2023-04-14T06:46:57.150Z,9.00
2023-04-14T06:49:25.263Z,9.10
2023-04-14T06:51:53.243Z,9.10
2023-04-14T06:54:21.255Z,9.20
2023-04-14T06:56:49.223Z,9.20
2023-04-14T06:59:17.247Z,9.30
2023-04-14T07:01:45.445Z,9.30
2023-04-14T07:04:15.602Z,9.40
2023-04-14T07:06:43.781Z,9.40
2023-04-14T07:09:11.686Z,9.50
2023-04-14T07:11:48.644Z,9.50
2023-04-14T07:14:16.676Z,9.70
2023-04-14T07:16:44.718Z,9.80
2023-04-14T07:19:14.356Z,9.90
2023-04-14T07:21:42.314Z,10.00
2023-04-14T07:24:10.488Z,9.90
2023-04-14T07:26:38.584Z,10.10
2023-04-14T07:29:06.682Z,10.10
2023-04-14T07:31:35.749Z,10.20
2023-04-14T07:34:03.797Z,10.30
2023-04-14T07:36:33.667Z,10.30
2023-04-14T07:39:01.782Z,10.30
2023-04-14T07:41:54.526Z,10.40
2023-04-14T07:44:22.489Z,10.50
2023-04-14T07:46:50.623Z,10.70
2023-04-14T07:49:18.677Z,10.90
2023-04-14T07:51:48.163Z,11.40
2023-04-14T07:54:16.905Z,11.80
2023-04-14T07:56:44.976Z,12.10
2023-04-14T07:59:13.156Z,12.30
2023-04-14T08:01:41.707Z,12.50
2023-04-14T08:04:09.959Z,12.90
2023-04-14T08:06:38.250Z,13.50
2023-04-14T08:09:07.601Z,13.90
2023-04-14T08:11:35.605Z,14.20
2023-04-14T08:14:04.537Z,14.50
2023-04-14T08:16:36.693Z,14.60
2023-04-14T08:19:05.439Z,14.60
2023-04-14T08:21:33.867Z,14.60
2023-04-14T08:24:01.979Z,14.70
2023-04-14T08:26:31.298Z,14.70
2023-04-14T08:28:59.456Z,14.80
2023-04-14T08:31:27.752Z,14.80
2023-04-14T08:33:57.302Z,14.80
2023-04-14T08:36:27.342Z,14.70
2023-04-14T08:38:55.591Z,14.80
2023-04-14T08:41:24.475Z,14.90
2023-04-14T08:43:57.283Z,15.10
2023-04-14T08:46:27.501Z,15.20
2023-04-14T08:49:00.508Z,15.30
2023-04-14T08:51:33.367Z,15.40
2023-04-14T08:54:02.489Z,15.30
2023-04-14T08:56:39.181Z,15.10
2023-04-14T08:59:10.321Z,14.90
2023-04-14T09:01:39.426Z,14.80
2023-04-14T09:04:09.126Z,14.70
2023-04-14T09:06:48.584Z,14.50
2023-04-14T09:09:17.193Z,14.40
2023-04-14T09:11:46.173Z,14.20
2023-04-14T09:14:16.510Z,14.10
2023-04-14T09:16:45.125Z,13.90
2023-04-14T09:19:13.453Z,13.70
2023-04-14T09:21:52.536Z,13.60
2023-04-14T09:24:30.006Z,13.50
2023-04-14T09:27:01.817Z,13.40
2023-04-14T09:29:31.561Z,13.40
2023-04-14T09:31:59.729Z,13.40
2023-04-14T09:34:28.231Z,13.40
2023-04-14T09:37:04.793Z,13.40
2023-04-14T09:39:33.201Z,13.40
2023-04-14T09:42:01.895Z,13.50
2023-04-14T09:44:31.505Z,13.50
2023-04-14T09:47:00.773Z,13.40
2023-04-14T09:49:29.265Z,13.30
2023-04-14T09:52:04.260Z,13.20
2023-04-14T09:54:32.264Z,13.10
2023-04-14T09:57:01.310Z,13.00
2023-04-14T09:59:35.164Z,13.00
2023-04-14T10:02:07.088Z,13.10
2023-04-14T10:04:36.745Z,13.20
2023-04-14T10:07:07.913Z,13.40
2023-04-14T10:09:38.440Z,13.80
2023-04-14T10:12:12.505Z,14.40
2023-04-14T10:14:42.975Z,15.00
2023-04-14T10:17:11.786Z,15.60
2023-04-14T10:19:39.860Z,16.10
2023-04-14T10:22:08.164Z,16.50
2023-04-14T10:24:36.991Z,16.60
2023-04-14T10:27:06.233Z,16.80
2023-04-14T10:29:34.265Z,16.70
2023-04-14T10:32:07.141Z,16.60
2023-04-14T10:34:36.462Z,16.70
2023-04-14T10:37:14.982Z,17.00
2023-04-14T10:39:43.780Z,17.20
2023-04-14T10:42:11.998Z,17.30
2023-04-14T10:44:40.472Z,17.70
2023-04-14T10:47:10.829Z,18.10
2023-04-14T10:49:40.264Z,18.60
2023-04-14T10:52:34.660Z,18.90
2023-04-14T10:55:08.829Z,19.10
2023-04-14T10:57:43.375Z,19.30
2023-04-14T11:00:26.277Z,19.40
2023-04-14T11:03:05.637Z,19.30
2023-04-14T11:05:34.877Z,19.70
2023-04-14T11:08:13.651Z,20.10
2023-04-14T11:10:42.736Z,20.20
2023-04-14T11:13:16.542Z,20.30
2023-04-14T11:15:50.270Z,20.20
2023-04-14T11:18:22.033Z,20.20
2023-04-14T11:20:53.210Z,20.00
2023-04-14T11:23:28.305Z,19.80
2023-04-14T11:25:58.051Z,19.80
2023-04-14T11:28:33.399Z,20.00
2023-04-14T11:31:03.474Z,19.80
2023-04-14T11:33:35.890Z,19.70
2023-04-14T11:36:05.831Z,19.40
2023-04-14T11:38:35.699Z,19.40
2023-04-14T11:41:04.924Z,19.30
2023-04-14T11:43:33.421Z,19.00
2023-04-14T11:46:02.053Z,18.70
2023-04-14T11:48:32.108Z,18.30
2023-04-14T11:51:03.711Z,18.00
2023-04-14T11:53:33.250Z,17.90
2023-04-14T11:56:01.573Z,17.90
2023-04-14T11:58:30.361Z,18.20
2023-04-14T12:00:58.580Z,18.10
2023-04-14T12:03:28.721Z,18.10
2023-04-14T12:06:00.632Z,18.00
2023-04-14T12:08:52.941Z,18.00
2023-04-14T12:11:21.229Z,18.00
2023-04-14T12:13:51.116Z,17.90
2023-04-14T12:16:20.089Z,17.90
2023-04-14T12:18:48.280Z,17.90
2023-04-14T12:21:21.308Z,18.00
2023-04-14T12:23:49.916Z,18.20
2023-04-14T12:26:19.545Z,18.00
2023-04-14T12:28:56.019Z,18.10
2023-04-14T12:31:29.741Z,18.20
2023-04-14T12:34:03.389Z,18.30
2023-04-14T12:36:48.770Z,18.20
2023-04-14T12:39:22.331Z,18.10
2023-04-14T12:41:50.552Z,18.00
2023-04-14T12:44:20.543Z,17.80
2023-04-14T12:46:50.042Z,17.60
2023-04-14T12:49:34.510Z,17.60
2023-04-14T12:52:04.826Z,17.60
2023-04-14T12:54:51.763Z,17.60
2023-04-14T12:57:21.397Z,17.50
2023-04-14T12:59:49.385Z,17.40
2023-04-14T13:02:17.986Z,17.20
2023-04-14T13:04:46.374Z,16.90
2023-04-14T13:07:15.774Z,16.70
2023-04-14T13:09:44.848Z,16.60
2023-04-14T13:12:13.036Z,16.50
2023-04-14T13:14:41.125Z,16.50
2023-04-14T13:17:09.218Z,16.30
2023-04-14T13:19:37.230Z,16.20
2023-04-14T13:22:05.524Z,16.20
2023-04-14T13:24:34.980Z,16.10
2023-04-14T13:27:03.071Z,16.00
2023-04-14T13:29:32.880Z,16.10
2023-04-14T13:32:01.136Z,16.10
2023-04-14T13:34:29.383Z,16.10
2023-04-14T13:36:57.381Z,16.10
2023-04-14T13:39:25.282Z,16.10
2023-04-14T13:41:54.584Z,16.10
2023-04-14T13:44:22.520Z,16.00
2023-04-14T13:46:52.347Z,15.90
2023-04-14T13:49:20.651Z,15.90
2023-04-14T13:51:48.669Z,15.90
2023-04-14T13:54:16.746Z,16.00
2023-04-14T13:56:52.001Z,16.20
2023-04-14T13:59:42.682Z,16.30
2023-04-14T14:02:19.807Z,16.60
2023-04-14T14:04:47.898Z,16.90
2023-04-14T14:07:15.943Z,17.10
2023-04-14T14:09:44.510Z,17.30
2023-04-14T14:12:12.905Z,17.30
2023-04-14T14:14:42.249Z,17.10
2023-04-14T14:17:11.042Z,16.90
2023-04-14T14:19:40.022Z,16.80
2023-04-14T14:22:08.435Z,16.70
2023-04-14T14:24:36.405Z,16.70
2023-04-14T14:27:04.443Z,16.80
2023-04-14T14:29:32.341Z,16.80
2023-04-14T14:32:01.914Z,16.80
2023-04-14T14:34:30.141Z,16.70
2023-04-14T14:36:58.781Z,16.60
2023-04-14T14:39:27.272Z,16.60
2023-04-14T14:41:55.259Z,16.60
2023-04-14T14:44:23.278Z,16.50
2023-04-14T14:46:52.797Z,16.30
2023-04-14T14:49:22.273Z,16.20
2023-04-14T14:51:50.823Z,16.20
2023-04-14T14:54:18.886Z,16.10
2023-04-14T14:56:46.797Z,15.90
2023-04-14T14:59:16.306Z,15.40
2023-04-14T15:01:44.396Z,15.40
2023-04-14T15:04:12.548Z,15.20
2023-04-14T15:06:41.960Z,14.90
2023-04-14T15:09:10.292Z,14.70
2023-04-14T15:11:38.355Z,14.60
2023-04-14T15:14:06.518Z,14.50
2023-04-14T15:16:34.856Z,14.50
2023-04-14T15:19:03.619Z,14.40
2023-04-14T15:21:32.771Z,14.40
2023-04-14T15:24:02.648Z,14.40
2023-04-14T15:26:30.848Z,14.50
2023-04-14T15:28:58.964Z,14.50
2023-04-14T15:31:26.897Z,15.00
2023-04-14T15:33:55.798Z,14.60
2023-04-14T15:36:23.827Z,14.60
2023-04-14T15:38:51.820Z,14.60
2023-04-14T15:41:21.284Z,14.60
2023-04-14T15:43:50.877Z,14.60
2023-04-14T15:46:19.589Z,14.60
2023-04-14T15:48:47.565Z,14.70
2023-04-14T15:51:15.529Z,14.70
2023-04-14T15:53:43.462Z,14.70
2023-04-14T15:56:11.493Z,14.70
2023-04-14T15:58:41.178Z,14.70
2023-04-14T16:01:09.462Z,14.60
2023-04-14T16:03:38.494Z,14.50
2023-04-14T16:06:08.281Z,15.20
2023-04-14T16:08:36.373Z,14.50
2023-04-14T16:11:04.343Z,14.50
2023-04-14T16:13:32.352Z,14.50
2023-04-14T16:16:01.744Z,14.40
2023-04-14T16:18:29.710Z,14.40
2023-04-14T16:20:57.879Z,14.20
2023-04-14T16:23:25.912Z,14.10
2023-04-14T16:25:53.925Z,14.00
2023-04-14T16:28:22.955Z,14.00
2023-04-14T16:30:52.322Z,14.00
2023-04-14T16:33:21.664Z,13.60
2023-04-14T16:35:49.765Z,13.90
2023-04-14T16:38:18.392Z,13.90
2023-04-14T16:40:54.442Z,13.80
2023-04-14T16:43:26.169Z,13.70
2023-04-14T16:45:54.370Z,13.30
2023-04-14T16:48:23.731Z,14.20
2023-04-14T16:50:51.688Z,13.60
2023-04-14T16:53:19.731Z,13.50
2023-04-14T16:55:47.711Z,13.80
2023-04-14T16:58:15.666Z,13.40
2023-04-14T17:00:43.641Z,13.70
2023-04-14T17:03:11.897Z,13.40
2023-04-14T17:05:41.353Z,13.40
2023-04-14T17:08:09.426Z,13.30
2023-04-14T17:10:38.736Z,14.20
2023-04-14T17:13:07.046Z,13.20
2023-04-14T17:15:35.044Z,13.40
2023-04-14T17:18:03.137Z,13.20
2023-04-14T17:20:31.840Z,13.10
2023-04-14T17:23:01.167Z,13.00
2023-04-14T17:25:29.161Z,13.00
2023-04-14T17:27:57.174Z,12.90
2023-04-14T17:30:26.242Z,12.90
2023-04-14T17:32:55.158Z,12.90
2023-04-14T17:35:23.195Z,12.80
2023-04-14T17:37:51.134Z,12.70
2023-04-14T17:40:20.431Z,13.00
2023-04-14T17:42:48.395Z,12.70
2023-04-14T17:45:22.946Z,13.10
2023-04-14T17:47:51.318Z,12.50
2023-04-14T17:50:19.293Z,12.50
2023-04-14T17:52:47.594Z,12.40
2023-04-14T17:55:16.381Z,12.20
2023-04-14T17:57:46.818Z,12.20
2023-04-14T18:00:16.943Z,12.10
2023-04-14T18:02:45.285Z,12.10
2023-04-14T18:05:13.934Z,12.00
2023-04-14T18:07:43.137Z,11.90
2023-04-14T18:10:12.108Z,12.20
2023-04-14T18:12:40.257Z,11.80
2023-04-14T18:15:15.175Z,11.80
2023-04-14T18:17:43.632Z,11.80
2023-04-14T18:20:13.780Z,11.80
2023-04-14T18:22:43.295Z,11.80
2023-04-14T18:25:11.518Z,11.90
2023-04-14T18:30:12.720Z,11.70
2023-04-14T18:32:40.769Z,11.70
2023-04-14T18:35:09.263Z,11.70
2023-04-14T18:37:38.380Z,11.70
2023-04-14T18:40:07.273Z,11.70
2023-04-14T18:42:36.106Z,11.70
2023-04-14T18:45:05.006Z,11.60
2023-04-14T18:47:34.558Z,11.60
2023-04-14T18:50:02.692Z,11.60
2023-04-14T18:52:30.766Z,11.60
2023-04-14T18:55:05.515Z,11.60
2023-04-14T18:57:33.646Z,11.50
2023-04-14T19:00:02.026Z,11.50
2023-04-14T19:02:39.773Z,12.10
2023-04-14T19:05:10.134Z,11.50
2023-04-14T19:07:46.577Z,11.50
2023-04-14T19:10:15.148Z,11.80
2023-04-14T19:12:47.644Z,11.40
2023-04-14T19:15:19.483Z,11.40
2023-04-14T19:17:50.649Z,11.50
2023-04-14T19:20:18.816Z,11.40
2023-04-14T19:22:46.869Z,11.30
2023-04-14T19:25:21.294Z,11.60
2023-04-14T19:27:49.862Z,11.20
2023-04-14T19:30:19.375Z,11.30
2023-04-14T19:32:51.390Z,12.10
2023-04-14T19:35:22.205Z,11.80
2023-04-14T19:37:56.694Z,11.20
2023-04-14T19:40:25.426Z,11.10
2023-04-14T19:42:56.222Z,11.80
2023-04-14T19:45:24.939Z,11.20
2023-04-14T19:47:56.469Z,11.20
2023-04-14T19:50:24.603Z,11.60
2023-04-14T19:52:53.233Z,11.80
2023-04-14T19:55:21.232Z,11.10
2023-04-14T19:57:51.276Z,10.90
2023-04-14T20:00:22.404Z,11.00
2023-04-14T20:02:52.669Z,11.00
2023-04-14T20:05:32.736Z,12.10
2023-04-14T20:08:09.236Z,10.80
2023-04-14T20:10:42.955Z,11.00
2023-04-14T20:13:11.620Z,10.90
2023-04-14T20:15:42.124Z,10.50
2023-04-14T20:18:14.815Z,10.70
2023-04-14T20:20:46.762Z,10.90
2023-04-14T20:23:19.155Z,10.70
2023-04-14T20:25:56.519Z,10.80
2023-04-14T20:28:45.683Z,10.70
2023-04-14T20:31:18.851Z,10.60
2023-04-14T20:34:03.381Z,10.60
2023-04-14T20:36:41.586Z,10.60
2023-04-14T20:39:15.466Z,10.60
2023-04-14T20:41:44.123Z,11.40
2023-04-14T20:44:18.330Z,10.80
2023-04-14T20:46:46.832Z,10.70
2023-04-14T20:49:15.804Z,10.60
2023-04-14T20:52:16.415Z,10.50
2023-04-14T20:54:48.278Z,10.30
2023-04-14T20:57:17.139Z,10.80
2023-04-14T20:59:50.652Z,10.30
2023-04-14T21:02:19.163Z,10.20
2023-04-14T21:04:47.313Z,10.20
2023-04-14T21:07:17.110Z,10.10
2023-04-14T21:09:45.354Z,10.10
2023-04-14T21:12:14.735Z,10.10
2023-04-14T21:15:29.189Z,10.10
2023-04-14T21:17:32.491Z,10.10
2023-04-14T21:20:00.496Z,10.00
2023-04-14T21:22:29.858Z,10.00
2023-04-14T21:24:57.822Z,10.00
2023-04-14T21:27:26.211Z,10.00
2023-04-14T21:29:54.128Z,9.90
2023-04-14T21:32:22.042Z,9.90
2023-04-14T21:34:50.030Z,9.90
2023-04-14T21:37:19.393Z,10.00
2023-04-14T21:39:48.956Z,9.90
2023-04-14T21:42:16.901Z,9.90
2023-04-14T21:44:44.865Z,9.90
2023-04-14T21:47:12.778Z,9.80
2023-04-14T21:49:40.739Z,9.80
2023-04-14T21:52:08.674Z,9.80
2023-04-14T21:54:38.798Z,9.70
2023-04-14T21:57:09.686Z,9.80
2023-04-14T21:59:37.582Z,9.80
2023-04-14T22:02:05.681Z,9.80
2023-04-14T22:04:37.020Z,9.70
2023-04-14T22:07:06.410Z,9.70
2023-04-14T22:09:34.540Z,9.70
2023-04-14T22:12:03.332Z,9.70
2023-04-14T22:14:32.877Z,9.70
2023-04-14T22:17:00.937Z,9.70
2023-04-14T22:19:30.002Z,9.70
2023-04-14T22:21:57.984Z,9.70
2023-04-14T22:24:25.936Z,9.60
2023-04-14T22:26:53.855Z,9.60
2023-04-14T22:29:21.791Z,9.60
2023-04-14T22:31:51.195Z,9.60
2023-04-14T22:34:19.145Z,9.60
2023-04-14T22:36:47.135Z,9.60
2023-04-14T22:39:15.097Z,9.60
2023-04-14T22:41:43.363Z,9.60
2023-04-14T22:44:11.622Z,9.50
2023-04-14T22:46:39.757Z,9.50
2023-04-14T22:49:09.213Z,9.50
2023-04-14T22:51:37.145Z,9.50
2023-04-14T22:54:05.245Z,9.50
2023-04-14T22:56:33.419Z,9.40
2023-04-14T22:59:02.452Z,9.40
2023-04-14T23:01:31.044Z,9.30
2023-04-14T23:03:59.411Z,9.30
2023-04-14T23:06:28.841Z,9.30
2023-04-14T23:08:57.060Z,9.30
2023-04-14T23:11:25.076Z,9.30
2023-04-14T23:13:53.332Z,9.30
2023-04-14T23:16:21.566Z,9.30
2023-04-14T23:18:52.495Z,9.20
2023-04-14T23:21:22.201Z,9.20
2023-04-14T23:23:52.524Z,9.10
2023-04-14T23:26:21.779Z,9.10
2023-04-14T23:28:49.806Z,9.00
2023-04-14T23:31:18.703Z,9.00
2023-04-14T23:33:49.434Z,9.00
2023-04-14T23:36:17.439Z,8.90
2023-04-14T23:38:45.454Z,8.80
2023-04-14T23:41:15.018Z,8.80
2023-04-14T23:43:43.136Z,9.30
2023-04-14T23:46:11.445Z,8.80
2023-04-14T23:48:39.413Z,8.80
2023-04-14T23:51:19.191Z,8.80
2023-04-14T23:53:49.170Z,8.80
2023-04-14T23:56:18.564Z,8.70
2023-04-14T23:58:47.159Z,8.70
